Time;durP1;ratioP1;P1;durP2;ratioP2;P2;SDS_P1;SDS_P2;PMS_P1;PMS_P2;Temp;Humidity;BMP_temperature;BMP_pressure;BME280_temperature;BME280_humidity;BME280_pressure;Samples;Min_cycle;Max_cycle;Signal;HPM_P1;HPM_P2
2020/12/04 00:02:04;;;;;;;21.80;14.75;;;6.50;99.90;;;;;;5089737;28;20384;-72
2020/12/04 00:04:29;;;;;;;22.40;14.98;;;6.60;99.90;;;;;;5090063;28;20395;-72
2020/12/04 00:06:56;;;;;;;22.48;15.70;;;6.60;99.90;;;;;;5090306;28;20356;-72
2020/12/04 00:09:22;;;;;;;20.35;15.13;;;6.50;99.90;;;;;;5090396;28;20866;-75
2020/12/04 00:11:48;;;;;;;19.58;14.70;;;6.60;99.90;;;;;;5090598;28;20356;-75
2020/12/04 00:14:13;;;;;;;22.23;15.93;;;6.60;99.90;;;;;;5090403;28;20371;-75
2020/12/04 00:16:39;;;;;;;20.35;14.75;;;6.70;99.90;;;;;;5089909;28;20464;-75
2020/12/04 00:19:06;;;;;;;22.02;15.85;;;6.70;99.90;;;;;;5089724;28;20368;-75
2020/12/04 00:21:31;;;;;;;21.90;14.38;;;6.70;99.90;;;;;;5090571;28;21225;-75
2020/12/04 00:23:57;;;;;;;20.98;14.85;;;6.70;99.90;;;;;;5089833;28;20376;-75
2020/12/04 00:26:23;;;;;;;20.85;15.15;;;6.70;99.90;;;;;;5090309;28;20368;-75
2020/12/04 00:28:50;;;;;;;23.55;16.50;;;6.70;99.90;;;;;;5090365;28;20715;-75
2020/12/04 00:31:16;;;;;;;27.00;16.10;;;6.70;99.90;;;;;;5089882;28;20396;-75
2020/12/04 00:33:43;;;;;;;38.30;16.63;;;6.70;99.90;;;;;;5089264;28;20380;-75
2020/12/04 00:36:09;;;;;;;22.15;14.48;;;6.70;99.90;;;;;;5089470;28;20379;-75
2020/12/04 00:38:35;;;;;;;18.83;13.73;;;6.70;99.90;;;;;;5090743;28;20369;-76
2020/12/04 00:41:02;;;;;;;23.40;15.02;;;6.70;99.90;;;;;;5088445;28;20379;-75
2020/12/04 00:43:29;;;;;;;21.05;14.95;;;6.80;99.90;;;;;;5090518;28;20402;-72
2020/12/04 00:45:54;;;;;;;20.73;14.63;;;6.80;99.90;;;;;;5084468;28;21383;-73
2020/12/04 00:48:20;;;;;;;20.67;14.48;;;6.80;99.90;;;;;;5088576;28;20372;-73
2020/12/04 00:50:46;;;;;;;19.05;13.38;;;6.70;99.90;;;;;;5089584;28;20367;-72
2020/12/04 00:53:12;;;;;;;18.35;13.38;;;6.70;99.90;;;;;;5087752;28;20408;-73
2020/12/04 00:55:38;;;;;;;18.73;12.77;;;6.70;99.90;;;;;;5088893;28;20400;-73
2020/12/04 00:58:04;;;;;;;18.05;12.98;;;6.70;99.90;;;;;;5089878;28;20368;-75
2020/12/04 01:00:30;;;;;;;19.95;13.18;;;6.70;99.90;;;;;;5091647;28;20762;-76
2020/12/04 01:02:56;;;;;;;18.00;12.82;;;6.70;99.90;;;;;;5090278;28;20380;-76
2020/12/04 01:05:22;;;;;;;19.23;13.75;;;6.70;99.90;;;;;;5091024;28;20463;-77
2020/12/04 01:07:48;;;;;;;19.37;13.70;;;6.70;99.90;;;;;;5092037;28;20830;-76
2020/12/04 01:10:14;;;;;;;18.15;13.10;;;6.70;99.90;;;;;;5089855;28;20379;-76
2020/12/04 01:12:42;;;;;;;22.33;13.57;;;6.70;99.90;;;;;;5091244;28;20396;-76
2020/12/04 01:15:09;;;;;;;31.10;14.88;;;6.80;99.90;;;;;;5089618;28;20406;-75
2020/12/04 01:17:35;;;;;;;16.42;12.48;;;6.80;99.90;;;;;;5090445;28;20407;-76
2020/12/04 01:20:02;;;;;;;17.08;12.85;;;6.80;99.90;;;;;;5091052;28;20375;-75
2020/12/04 01:22:28;;;;;;;17.75;13.50;;;6.80;99.90;;;;;;5090872;28;20387;-76
2020/12/04 01:24:53;;;;;;;18.87;13.70;;;6.80;99.90;;;;;;5090217;28;20847;-76
2020/12/04 01:27:19;;;;;;;27.33;13.93;;;6.80;99.90;;;;;;5090668;28;20383;-76
2020/12/04 01:29:45;;;;;;;18.57;13.67;;;6.80;99.90;;;;;;5091106;28;20417;-76
2020/12/04 01:32:11;;;;;;;20.57;13.77;;;6.80;99.90;;;;;;5088763;28;20400;-76
2020/12/04 01:34:37;;;;;;;19.57;12.50;;;6.80;99.90;;;;;;5090926;28;20367;-76
2020/12/04 01:37:03;;;;;;;17.30;12.40;;;6.80;99.90;;;;;;5090598;28;20379;-76
2020/12/04 01:39:28;;;;;;;17.77;12.38;;;6.80;99.90;;;;;;5090267;28;20404;-76
2020/12/04 01:41:54;;;;;;;22.67;13.15;;;6.70;99.90;;;;;;5090513;28;20417;-76
2020/12/04 01:44:20;;;;;;;20.05;13.20;;;6.80;99.90;;;;;;5090457;28;20395;-76
2020/12/04 01:46:51;;;;;;;18.48;13.23;;;6.70;99.90;;;;;;5090458;28;20383;-76
2020/12/04 01:49:17;;;;;;;17.97;12.73;;;6.70;99.90;;;;;;5090434;28;20732;-76
2020/12/04 01:51:43;;;;;;;18.63;13.23;;;6.70;99.90;;;;;;5090277;28;20371;-75
2020/12/04 01:54:09;;;;;;;18.45;13.43;;;6.70;99.90;;;;;;5090064;28;20361;-76
2020/12/04 01:56:38;;;;;;;16.58;12.48;;;6.70;99.90;;;;;;5090176;28;20701;-75
2020/12/04 01:59:07;;;;;;;18.92;12.32;;;6.70;99.90;;;;;;5089800;28;20373;-75
2020/12/04 02:01:38;;;;;;;15.70;11.10;;;6.60;99.90;;;;;;5088483;28;20747;-75
2020/12/04 02:04:07;;;;;;;17.35;12.30;;;6.70;99.90;;;;;;5090133;28;20404;-75
2020/12/04 02:06:55;;;;;;;17.10;12.82;;;6.70;99.90;;;;;;5089621;28;20767;-75
2020/12/04 02:09:25;;;;;;;17.05;12.57;;;6.70;99.90;;;;;;5089483;28;20792;-75
2020/12/04 02:11:54;;;;;;;19.70;12.85;;;6.70;99.90;;;;;;5089826;28;20356;-75
2020/12/04 02:14:21;;;;;;;19.10;12.52;;;6.70;99.90;;;;;;5091386;28;20372;-75
2020/12/04 02:16:47;;;;;;;16.98;12.50;;;6.60;99.90;;;;;;5091923;28;20377;-75
2020/12/04 02:19:13;;;;;;;19.00;12.48;;;6.60;99.90;;;;;;5093947;28;20368;-75
2020/12/04 02:21:41;;;;;;;19.05;12.48;;;6.60;99.90;;;;;;5093956;28;20372;-75
2020/12/04 02:24:07;;;;;;;18.45;12.00;;;6.60;99.90;;;;;;5094002;28;20452;-75
2020/12/04 02:26:34;;;;;;;19.35;12.30;;;6.60;99.90;;;;;;5093847;28;20911;-75
2020/12/04 02:29:03;;;;;;;17.27;12.38;;;6.60;99.90;;;;;;5094060;28;20444;-75
2020/12/04 02:31:30;;;;;;;16.33;11.83;;;6.60;99.90;;;;;;5091630;28;20766;-75
2020/12/04 02:33:55;;;;;;;15.80;11.18;;;6.60;99.90;;;;;;5094170;28;20396;-76
2020/12/04 02:36:21;;;;;;;16.57;11.90;;;6.60;99.90;;;;;;5095038;28;20414;-76
2020/12/04 02:38:47;;;;;;;17.10;12.00;;;6.60;99.90;;;;;;5094723;28;20364;-76
2020/12/04 02:41:13;;;;;;;15.77;11.50;;;6.60;99.90;;;;;;5094640;28;20371;-76
2020/12/04 02:43:39;;;;;;;15.77;11.32;;;6.60;99.90;;;;;;5094504;28;20432;-76
2020/12/04 02:46:08;;;;;;;15.30;10.95;;;6.60;99.90;;;;;;5094094;28;20392;-76
2020/12/04 02:48:34;;;;;;;15.18;10.63;;;6.60;99.90;;;;;;5094728;28;20364;-76
2020/12/04 02:51:00;;;;;;;16.75;10.88;;;6.60;99.90;;;;;;5094490;28;20395;-76
2020/12/04 02:53:26;;;;;;;16.20;11.43;;;6.60;99.90;;;;;;5093746;28;20871;-76
2020/12/04 02:55:52;;;;;;;14.68;10.70;;;6.50;99.90;;;;;;5094103;28;20364;-76
2020/12/04 02:58:18;;;;;;;15.93;11.13;;;6.60;99.90;;;;;;5092841;28;20368;-76
2020/12/04 03:00:43;;;;;;;15.88;11.05;;;6.60;99.90;;;;;;5092256;28;20958;-76
2020/12/04 03:03:09;;;;;;;15.85;11.15;;;6.50;99.90;;;;;;5093556;28;20455;-76
2020/12/04 03:05:35;;;;;;;15.52;11.30;;;6.50;99.90;;;;;;5093433;28;20415;-76
2020/12/04 03:08:01;;;;;;;15.27;10.55;;;6.60;99.90;;;;;;5093043;28;20459;-76
2020/12/04 03:10:27;;;;;;;16.83;11.43;;;6.60;99.90;;;;;;5093668;28;20394;-75
2020/12/04 03:12:53;;;;;;;15.93;11.23;;;6.60;99.90;;;;;;5093661;28;20360;-76
2020/12/04 03:15:18;;;;;;;14.73;11.27;;;6.60;99.90;;;;;;5093299;28;20373;-76
2020/12/04 03:17:44;;;;;;;15.60;11.20;;;6.60;99.90;;;;;;5093691;28;20368;-76
2020/12/04 03:20:10;;;;;;;17.73;11.40;;;6.50;99.90;;;;;;5093638;28;20433;-76
2020/12/04 03:22:36;;;;;;;15.40;11.23;;;6.50;99.90;;;;;;5093257;28;20956;-75
2020/12/04 03:25:02;;;;;;;16.42;11.73;;;6.60;99.90;;;;;;5093040;28;20397;-76
2020/12/04 03:27:28;;;;;;;17.50;11.93;;;6.50;99.90;;;;;;5093343;28;20356;-76
2020/12/04 03:29:54;;;;;;;15.85;11.20;;;6.60;99.90;;;;;;5092857;28;20375;-76
2020/12/04 03:32:20;;;;;;;14.82;11.52;;;6.60;99.90;;;;;;5092911;28;20388;-75
2020/12/04 03:34:45;;;;;;;15.00;11.23;;;6.60;99.90;;;;;;5092969;28;20786;-75
2020/12/04 03:37:11;;;;;;;27.48;12.38;;;6.60;99.90;;;;;;5092658;28;21021;-75
2020/12/04 03:39:37;;;;;;;14.57;10.80;;;6.60;99.90;;;;;;5091111;28;20401;-75
2020/12/04 03:42:04;;;;;;;15.80;11.35;;;6.60;99.90;;;;;;5092915;28;20455;-75
2020/12/04 03:44:30;;;;;;;15.55;10.88;;;6.60;99.90;;;;;;5092910;28;20457;-75
2020/12/04 03:46:57;;;;;;;14.37;10.70;;;6.60;99.90;;;;;;5092586;28;20357;-76
2020/12/04 03:49:23;;;;;;;14.55;10.45;;;6.60;99.90;;;;;;5092733;28;20414;-76
2020/12/04 03:51:48;;;;;;;13.83;10.43;;;6.60;99.90;;;;;;5092194;28;20369;-76
2020/12/04 03:54:15;;;;;;;14.23;10.47;;;6.60;99.90;;;;;;5090661;28;20360;-75
2020/12/04 03:56:40;;;;;;;13.65;10.25;;;6.60;99.90;;;;;;5090766;28;20731;-75
2020/12/04 03:59:07;;;;;;;13.50;10.35;;;6.60;99.90;;;;;;5091706;28;20379;-75
2020/12/04 04:01:33;;;;;;;15.77;11.82;;;6.70;99.90;;;;;;5091584;28;20374;-75
2020/12/04 04:03:58;;;;;;;15.30;11.40;;;6.70;99.90;;;;;;5091586;28;20364;-75
2020/12/04 04:06:25;;;;;;;17.20;11.52;;;6.70;99.90;;;;;;5091801;28;20383;-75
2020/12/04 04:08:51;;;;;;;16.70;11.30;;;6.70;99.90;;;;;;5091408;28;20367;-75
2020/12/04 04:11:17;;;;;;;16.58;12.07;;;6.70;99.90;;;;;;5091612;28;20410;-75
2020/12/04 04:13:43;;;;;;;15.68;11.43;;;6.70;99.90;;;;;;5091611;28;20371;-75
2020/12/04 04:16:08;;;;;;;14.80;11.55;;;6.70;99.90;;;;;;5091226;28;20422;-75
2020/12/04 04:18:34;;;;;;;15.05;11.35;;;6.70;99.90;;;;;;5091600;28;20443;-75
2020/12/04 04:21:01;;;;;;;15.75;11.77;;;6.80;99.90;;;;;;5091511;28;20399;-75
2020/12/04 04:23:27;;;;;;;14.30;11.25;;;6.70;99.90;;;;;;5091420;28;21094;-75
2020/12/04 04:25:53;;;;;;;14.40;10.60;;;6.70;99.90;;;;;;5091492;28;20388;-75
2020/12/04 04:28:19;;;;;;;14.35;11.00;;;6.80;99.90;;;;;;5091311;28;20356;-75
2020/12/04 04:30:45;;;;;;;14.77;11.27;;;6.80;99.90;;;;;;5089746;28;20383;-75
2020/12/04 04:33:11;;;;;;;15.60;10.95;;;6.80;99.90;;;;;;5091855;28;20381;-76
2020/12/04 04:35:37;;;;;;;14.93;11.30;;;6.90;99.90;;;;;;5092307;28;21067;-76
2020/12/04 04:38:04;;;;;;;15.55;10.80;;;6.80;99.90;;;;;;5091563;28;20368;-76
2020/12/04 04:40:30;;;;;;;15.10;10.73;;;6.80;99.90;;;;;;5091750;28;20365;-76
2020/12/04 04:43:16;;;;;;;15.45;11.13;;;6.80;99.90;;;;;;5092160;28;20429;-76
2020/12/04 04:45:43;;;;;;;16.38;11.25;;;6.80;99.90;;;;;;5091650;28;20389;-76
2020/12/04 04:48:26;;;;;;;57.50;13.43;;;6.80;99.90;;;;;;5091276;28;20363;-76
2020/12/04 04:50:59;;;;;;;16.85;11.68;;;6.80;99.90;;;;;;5091202;28;20357;-75
2020/12/04 04:53:25;;;;;;;16.52;11.82;;;6.80;99.90;;;;;;5091279;28;20353;-76
2020/12/04 04:55:51;;;;;;;17.50;11.55;;;6.80;99.90;;;;;;5091789;28;20372;-76
2020/12/04 04:58:17;;;;;;;16.15;12.05;;;6.80;99.90;;;;;;5091726;28;20783;-76
2020/12/04 05:00:43;;;;;;;19.52;12.80;;;6.80;99.90;;;;;;5090937;28;20418;-75
2020/12/04 05:03:10;;;;;;;17.10;12.32;;;6.80;99.90;;;;;;5091356;28;20377;-76
2020/12/04 05:05:44;;;;;;;17.63;12.25;;;6.80;99.90;;;;;;5091589;28;20389;-76
2020/12/04 05:08:15;;;;;;;19.30;13.90;;;6.80;99.90;;;;;;5091318;28;21078;-76
2020/12/04 05:10:42;;;;;;;17.83;13.43;;;6.80;99.90;;;;;;5091703;28;20869;-77
2020/12/04 05:13:08;;;;;;;17.75;12.63;;;6.80;99.90;;;;;;5091650;28;20414;-76
2020/12/04 05:15:34;;;;;;;18.00;12.63;;;6.80;99.90;;;;;;5091318;28;20368;-76
2020/12/04 05:18:01;;;;;;;17.52;12.65;;;6.80;99.90;;;;;;5091652;28;20364;-77
2020/12/04 05:20:28;;;;;;;17.90;12.70;;;6.80;99.90;;;;;;5090420;28;21108;-76
2020/12/04 05:22:58;;;;;;;18.98;13.52;;;6.80;99.90;;;;;;5091354;28;20462;-76
2020/12/04 05:25:24;;;;;;;19.85;13.48;;;6.80;99.90;;;;;;5091448;28;20388;-76
2020/12/04 05:27:50;;;;;;;20.08;13.65;;;6.80;99.90;;;;;;5090064;28;20390;-76
2020/12/04 05:30:26;;;;;;;19.40;12.73;;;6.80;99.90;;;;;;5091096;28;20915;-76
2020/12/04 05:33:03;;;;;;;17.92;12.88;;;6.90;99.90;;;;;;5090953;28;20763;-76
2020/12/04 05:35:29;;;;;;;18.23;13.70;;;6.80;99.90;;;;;;5091348;28;20360;-76
2020/12/04 05:38:12;;;;;;;19.92;14.73;;;6.80;99.90;;;;;;5091086;28;20425;-76
2020/12/04 05:40:43;;;;;;;18.48;12.18;;;6.80;99.90;;;;;;5090960;28;20380;-76
2020/12/04 05:43:09;;;;;;;15.60;11.23;;;6.80;99.90;;;;;;5090936;28;20425;-76
2020/12/04 05:45:35;;;;;;;15.70;12.10;;;6.80;99.90;;;;;;5090300;28;20465;-76
2020/12/04 05:48:01;;;;;;;14.63;11.55;;;6.80;99.90;;;;;;5091343;28;20360;-76
2020/12/04 05:50:27;;;;;;;16.58;12.30;;;6.80;99.90;;;;;;5090884;28;20769;-76
2020/12/04 05:52:53;;;;;;;15.90;12.00;;;6.90;99.90;;;;;;5091052;28;20392;-76
2020/12/04 05:55:19;;;;;;;15.88;12.20;;;6.80;99.90;;;;;;5090492;28;20855;-76
2020/12/04 05:57:59;;;;;;;17.10;12.65;;;6.80;99.90;;;;;;5091158;28;20388;-76
2020/12/04 06:00:25;;;;;;;17.13;12.38;;;6.80;99.90;;;;;;5090724;28;20373;-76
2020/12/04 06:03:04;;;;;;;15.93;12.38;;;6.90;99.90;;;;;;5091047;28;20422;-77
2020/12/04 06:05:32;;;;;;;21.23;13.65;;;6.90;99.90;;;;;;5090246;28;20395;-76
2020/12/04 06:08:01;;;;;;;15.32;12.23;;;6.90;99.90;;;;;;5090308;28;20421;-76
2020/12/04 06:10:29;;;;;;;16.50;11.27;;;6.90;99.90;;;;;;5090911;28;20983;-76
2020/12/04 06:12:55;;;;;;;16.40;12.52;;;6.90;99.90;;;;;;5090528;28;20368;-76
2020/12/04 06:15:24;;;;;;;22.87;14.97;;;6.90;99.90;;;;;;5090287;28;20365;-76
2020/12/04 06:17:51;;;;;;;23.90;15.20;;;6.90;99.90;;;;;;5090635;28;20470;-76
2020/12/04 06:20:21;;;;;;;20.70;14.00;;;6.80;99.90;;;;;;5090300;28;20437;-76
2020/12/04 06:23:09;;;;;;;19.13;13.90;;;6.80;99.90;;;;;;5090878;28;20862;-76
2020/12/04 06:25:56;;;;;;;22.30;16.75;;;6.80;99.90;;;;;;5090329;28;20384;-76
2020/12/04 06:28:33;;;;;;;18.17;13.77;;;6.80;99.90;;;;;;5090296;28;20364;-76
2020/12/04 06:31:04;;;;;;;25.55;17.13;;;6.80;99.90;;;;;;5090307;28;20388;-76
2020/12/04 06:33:32;;;;;;;16.92;12.88;;;6.80;99.90;;;;;;5090343;28;20784;-76
2020/12/04 06:35:58;;;;;;;18.38;12.43;;;6.80;99.90;;;;;;5089998;28;20387;-76
2020/12/04 06:38:33;;;;;;;14.63;11.73;;;6.80;99.90;;;;;;5090890;28;20371;-76
2020/12/04 06:41:32;;;;;;;14.23;10.68;;;6.90;99.90;;;;;;5090529;28;20368;-76
2020/12/04 06:44:06;;;;;;;15.68;11.50;;;6.80;99.90;;;;;;5090406;28;20387;-76
2020/12/04 06:46:40;;;;;;;17.60;12.45;;;6.90;99.90;;;;;;5090723;28;20380;-77
2020/12/04 06:49:10;;;;;;;18.35;13.18;;;6.90;99.90;;;;;;5090607;28;20908;-76
2020/12/04 06:51:38;;;;;;;18.35;12.43;;;6.90;99.90;;;;;;5090119;28;20399;-76
2020/12/04 06:54:06;;;;;;;18.23;13.57;;;6.90;99.90;;;;;;5089281;28;20447;-76
2020/12/04 06:56:33;;;;;;;19.33;13.57;;;6.90;99.90;;;;;;5090228;28;20796;-76
2020/12/04 06:58:59;;;;;;;19.20;14.10;;;6.90;99.90;;;;;;5088598;28;20845;-76
2020/12/04 07:01:24;;;;;;;22.88;15.05;;;6.90;99.90;;;;;;5093513;28;20369;-76
2020/12/04 07:03:55;;;;;;;20.38;13.77;;;7.00;99.90;;;;;;5094009;28;20356;-76
2020/12/04 07:06:25;;;;;;;14.88;11.32;;;6.90;99.90;;;;;;5092120;28;20399;-76
2020/12/04 07:09:02;;;;;;;16.20;11.85;;;7.00;99.90;;;;;;5093795;28;20877;-76
2020/12/04 07:11:29;;;;;;;13.00;11.10;;;7.00;99.90;;;;;;5093806;28;20365;-76
2020/12/04 07:13:55;;;;;;;15.55;11.05;;;7.00;99.90;;;;;;5093103;28;20357;-76
2020/12/04 07:16:21;;;;;;;15.05;11.30;;;7.00;99.90;;;;;;5093614;28;20846;-76
2020/12/04 07:18:53;;;;;;;14.95;11.00;;;7.00;99.90;;;;;;5093837;28;20383;-76
2020/12/04 07:21:25;;;;;;;17.60;11.63;;;7.00;99.90;;;;;;5093297;28;20360;-76
2020/12/04 07:23:53;;;;;;;14.90;10.82;;;7.00;99.90;;;;;;5092909;28;20372;-75
2020/12/04 07:26:20;;;;;;;18.65;13.15;;;7.00;99.90;;;;;;5092737;28;20400;-75
2020/12/04 07:28:46;;;;;;;18.35;12.60;;;7.10;99.90;;;;;;5092398;28;20356;-75
2020/12/04 07:31:20;;;;;;;17.77;12.52;;;7.00;99.90;;;;;;5092643;28;20411;-75
2020/12/04 07:34:00;;;;;;;20.52;13.10;;;7.10;99.90;;;;;;5092690;28;20373;-75
2020/12/04 07:36:27;;;;;;;16.85;13.10;;;7.10;99.90;;;;;;5091348;28;20867;-76
2020/12/04 07:39:00;;;;;;;18.60;13.98;;;7.10;99.90;;;;;;5093138;28;20821;-76
2020/12/04 07:41:41;;;;;;;36.08;15.10;;;7.10;99.90;;;;;;5091372;28;20372;-75
2020/12/04 07:44:08;;;;;;;21.10;14.93;;;7.10;99.90;;;;;;5092192;28;20364;-75
2020/12/04 07:46:35;;;;;;;18.67;13.10;;;7.10;99.90;;;;;;5092559;28;20855;-75
2020/12/04 07:49:05;;;;;;;20.70;13.97;;;7.10;99.90;;;;;;5091825;28;20462;-75
2020/12/04 07:51:33;;;;;;;20.67;13.63;;;7.10;99.90;;;;;;5092439;28;20376;-75
2020/12/04 07:54:01;;;;;;;21.85;15.05;;;7.10;99.90;;;;;;5090847;28;20455;-75
2020/12/04 07:56:28;;;;;;;20.30;13.77;;;7.10;99.90;;;;;;5090657;28;20435;-75
2020/12/04 07:59:05;;;;;;;20.77;14.70;;;7.10;99.90;;;;;;5091040;28;20451;-75
2020/12/04 08:01:39;;;;;;;18.73;13.73;;;7.10;99.90;;;;;;5092269;28;20365;-75
2020/12/04 08:04:07;;;;;;;22.08;14.60;;;7.10;99.90;;;;;;5091918;28;20364;-75
2020/12/04 08:06:33;;;;;;;18.90;13.55;;;7.10;99.90;;;;;;5092059;28;20360;-75
2020/12/04 08:09:14;;;;;;;26.60;15.82;;;7.10;99.90;;;;;;5092131;28;20367;-75
2020/12/04 08:11:47;;;;;;;22.27;15.00;;;7.20;99.90;;;;;;5090516;28;20353;-75
2020/12/04 08:14:15;;;;;;;26.98;16.55;;;7.20;99.90;;;;;;5092283;28;20374;-75
2020/12/04 08:16:41;;;;;;;21.25;14.55;;;7.20;99.90;;;;;;5091682;28;20430;-75
2020/12/04 08:19:11;;;;;;;25.33;16.87;;;7.20;99.90;;;;;;5091299;28;20360;-75
2020/12/04 08:21:55;;;;;;;20.92;14.20;;;7.20;99.90;;;;;;5091969;28;20426;-76
2020/12/04 08:24:23;;;;;;;19.85;13.02;;;7.20;99.90;;;;;;5091713;28;20360;-75
2020/12/04 08:27:01;;;;;;;28.50;14.55;;;7.30;99.90;;;;;;5088498;28;20376;-75
2020/12/04 08:29:27;;;;;;;17.08;12.73;;;7.30;99.90;;;;;;5076775;28;20368;-75
2020/12/04 08:32:10;;;;;;;22.93;13.43;;;7.30;99.90;;;;;;5083737;28;20891;-75
2020/12/04 08:34:36;;;;;;;45.10;13.65;;;7.30;99.90;;;;;;5091044;28;20426;-75
2020/12/04 08:37:05;;;;;;;155.25;73.82;;;7.40;99.90;;;;;;5089622;28;20441;-73
2020/12/04 08:39:36;;;;;;;194.77;57.67;;;7.70;99.90;;;;;;5090015;28;20761;-76
2020/12/04 08:42:15;;;;;;;523.65;81.47;;;8.00;99.90;;;;;;5090603;28;20384;-75
2020/12/04 08:44:41;;;;;;;473.27;63.38;;;8.40;99.90;;;;;;5090867;28;20787;-73
2020/12/04 08:47:07;;;;;;;674.63;479.38;;;8.70;99.90;;;;;;5090017;28;20368;-74
2020/12/04 08:49:33;;;;;;;35.35;21.60;;;9.20;99.90;;;;;;5090546;28;20360;-76
2020/12/04 08:51:59;;;;;;;33.80;23.58;;;9.10;99.90;;;;;;5090717;28;20462;-76
2020/12/04 08:54:27;;;;;;;22.25;15.90;;;8.80;99.90;;;;;;5091018;28;20475;-76
2020/12/04 08:56:55;;;;;;;18.90;15.15;;;8.60;99.90;;;;;;5091174;28;20875;-75
2020/12/04 08:59:25;;;;;;;72.30;41.42;;;8.30;99.90;;;;;;5090594;28;20379;-75
2020/12/04 09:01:52;;;;;;;23.88;16.70;;;8.90;99.90;;;;;;5092784;28;20374;-76
2020/12/04 09:04:18;;;;;;;19.10;14.60;;;8.70;99.90;;;;;;5105249;28;20455;-76
2020/12/04 09:06:46;;;;;;;20.88;14.55;;;8.40;99.90;;;;;;5095586;28;20885;-76
2020/12/04 09:09:11;;;;;;;21.27;14.90;;;8.30;99.90;;;;;;5106314;28;20423;-75
2020/12/04 09:11:37;;;;;;;20.10;14.03;;;8.20;99.90;;;;;;5097137;28;20362;-76
2020/12/04 09:14:03;;;;;;;20.63;14.57;;;8.20;99.90;;;;;;5101411;28;20897;-76
2020/12/04 09:16:29;;;;;;;19.95;14.05;;;8.10;99.90;;;;;;5103789;28;20365;-76
2020/12/04 09:18:55;;;;;;;16.70;13.27;;;8.10;99.90;;;;;;5094069;28;20403;-76
2020/12/04 09:21:20;;;;;;;18.08;12.73;;;8.00;99.90;;;;;;5107118;28;20379;-76
2020/12/04 09:23:46;;;;;;;19.30;13.37;;;8.00;99.90;;;;;;5092158;28;20882;-76
2020/12/04 09:26:12;;;;;;;17.43;12.17;;;8.00;99.90;;;;;;5101204;28;20386;-76
2020/12/04 09:28:38;;;;;;;20.77;12.83;;;8.00;99.90;;;;;;5094031;28;20372;-76
2020/12/04 09:31:04;;;;;;;21.57;13.30;;;8.00;99.90;;;;;;5104491;28;20465;-76
2020/12/04 09:33:30;;;;;;;18.53;12.80;;;8.00;99.90;;;;;;5095123;28;20370;-74
2020/12/04 09:35:56;;;;;;;16.55;12.30;;;8.00;99.90;;;;;;5101200;28;20372;-75
2020/12/04 09:38:22;;;;;;;18.80;12.77;;;8.00;99.90;;;;;;5102330;28;21135;-75
2020/12/04 09:40:48;;;;;;;19.48;13.02;;;8.00;99.90;;;;;;5094140;28;20368;-75
2020/12/04 09:43:13;;;;;;;18.97;13.53;;;8.00;99.90;;;;;;5105579;28;20988;-75
2020/12/04 09:45:39;;;;;;;21.67;13.65;;;8.00;99.90;;;;;;5095763;28;20386;-75
2020/12/04 09:48:05;;;;;;;21.13;14.55;;;8.00;99.90;;;;;;5097795;28;20430;-75
2020/12/04 09:50:31;;;;;;;21.48;14.75;;;8.00;99.90;;;;;;5103021;28;20697;-75
2020/12/04 09:52:57;;;;;;;21.35;15.30;;;8.00;99.90;;;;;;5092601;28;20371;-76
2020/12/04 09:55:25;;;;;;;30.25;21.08;;;8.00;99.90;;;;;;5105694;28;20753;-72
2020/12/04 09:57:51;;;;;;;67.65;42.22;;;8.10;99.90;;;;;;5096886;28;20457;-72
2020/12/04 10:00:17;;;;;;;26.92;18.45;;;8.20;99.90;;;;;;5096360;28;20476;-72
2020/12/04 10:02:43;;;;;;;45.67;28.20;;;8.20;99.90;;;;;;5104690;28;20374;-76
2020/12/04 10:05:08;;;;;;;54.15;30.25;;;8.50;99.90;;;;;;5090520;28;20397;-77
2020/12/04 10:07:34;;;;;;;34.88;21.75;;;8.50;99.90;;;;;;5094178;28;20385;-76
2020/12/04 10:10:00;;;;;;;54.33;33.88;;;8.50;99.90;;;;;;5100556;28;21043;-76
2020/12/04 10:12:26;;;;;;;66.25;39.38;;;8.50;99.90;;;;;;5102367;28;20363;-76
2020/12/04 10:14:52;;;;;;;30.92;20.55;;;8.60;99.90;;;;;;5093033;28;20860;-76
2020/12/04 10:17:17;;;;;;;28.02;19.08;;;8.60;99.90;;;;;;5090044;28;20370;-76
2020/12/04 10:19:43;;;;;;;28.77;20.90;;;8.60;99.90;;;;;;5109634;28;20362;-76
2020/12/04 10:22:09;;;;;;;27.60;19.65;;;8.60;99.90;;;;;;5098724;28;20373;-76
2020/12/04 10:24:35;;;;;;;23.38;17.13;;;8.70;99.90;;;;;;5104213;28;20390;-76
2020/12/04 10:27:01;;;;;;;94.30;56.97;;;8.70;99.90;;;;;;5092682;28;21222;-75
2020/12/04 10:29:27;;;;;;;31.85;22.23;;;8.70;99.90;;;;;;5104397;28;20353;-76
2020/12/04 10:31:52;;;;;;;82.32;49.33;;;8.70;99.90;;;;;;5097106;28;20746;-75
2020/12/04 10:34:18;;;;;;;52.42;32.65;;;8.90;99.90;;;;;;5097099;28;20730;-76
2020/12/04 10:36:44;;;;;;;54.20;36.67;;;8.90;99.90;;;;;;5108400;28;20437;-76
2020/12/04 10:39:12;;;;;;;30.00;18.73;;;8.90;99.90;;;;;;5096622;28;20356;-76
2020/12/04 10:41:39;;;;;;;29.13;22.38;;;8.90;99.90;;;;;;5107128;28;20441;-76
2020/12/04 10:44:06;;;;;;;22.38;16.77;;;9.00;99.90;;;;;;5103421;28;20371;-76
2020/12/04 10:46:34;;;;;;;31.00;21.95;;;9.00;99.90;;;;;;5113640;28;20374;-75
2020/12/04 10:48:59;;;;;;;24.10;16.92;;;9.10;99.90;;;;;;5101722;28;20364;-76
2020/12/04 10:51:26;;;;;;;26.35;21.73;;;9.20;99.90;;;;;;5091117;28;20373;-75
2020/12/04 10:53:52;;;;;;;22.52;17.20;;;9.30;99.90;;;;;;5086143;28;20389;-75
2020/12/04 10:56:21;;;;;;;21.40;15.38;;;9.40;99.90;;;;;;5071599;28;20385;-76
2020/12/04 10:58:48;;;;;;;20.75;14.48;;;9.60;99.90;;;;;;5072707;28;20371;-76
2020/12/04 11:01:17;;;;;;;21.27;14.13;;;9.60;99.90;;;;;;5072320;28;20404;-76
2020/12/04 11:06:09;;;;;;;17.13;12.68;;;9.80;99.90;;;;;;5072810;28;20931;-76
2020/12/04 11:08:35;;;;;;;22.42;15.70;;;10.00;99.90;;;;;;5072586;28;20358;-76
2020/12/04 11:11:01;;;;;;;20.30;14.00;;;10.00;99.90;;;;;;5084873;28;20715;-75
2020/12/04 11:13:27;;;;;;;33.30;20.50;;;10.00;99.90;;;;;;5092799;28;20364;-76
2020/12/04 11:15:52;;;;;;;95.70;54.78;;;9.90;99.90;;;;;;5092682;28;20383;-75
2020/12/04 11:18:18;;;;;;;115.47;77.43;;;9.90;99.90;;;;;;5092475;28;20492;-75
2020/12/04 11:20:44;;;;;;;40.13;27.75;;;9.90;99.90;;;;;;5088207;28;20442;-75
2020/12/04 11:23:10;;;;;;;51.17;39.42;;;10.00;99.90;;;;;;5092066;28;20376;-75
2020/12/04 11:25:36;;;;;;;31.77;23.00;;;10.10;99.90;;;;;;5092059;28;20388;-75
2020/12/04 11:28:01;;;;;;;36.30;28.20;;;10.10;99.90;;;;;;5090061;28;20761;-75
2020/12/04 11:30:28;;;;;;;43.20;31.80;;;10.10;99.90;;;;;;5092305;28;20365;-75
2020/12/04 13:46:43;;;;;;;19.35;15.52;;;12.70;94.70;;;;;;5127447;27;20731;-73
2020/12/04 13:49:09;;;;;;;18.60;15.15;;;12.70;93.20;;;;;;5109144;28;20368;-73
2020/12/04 13:51:37;;;;;;;17.13;13.38;;;12.50;93.60;;;;;;5091357;28;20757;-74
2020/12/04 13:54:03;;;;;;;23.63;18.10;;;12.40;93.80;;;;;;5086862;28;20372;-74
2020/12/04 13:56:29;;;;;;;27.55;21.00;;;12.50;94.50;;;;;;5087130;28;20840;-74
2020/12/04 13:58:55;;;;;;;48.53;24.00;;;12.60;94.10;;;;;;5086922;28;20372;-73
2020/12/04 14:01:22;;;;;;;36.00;27.10;;;13.20;94.50;;;;;;5083955;28;20365;-73
2020/12/04 14:03:54;;;;;;;32.38;23.60;;;13.00;93.10;;;;;;5086367;28;20357;-73
2020/12/04 14:06:20;;;;;;;42.88;29.73;;;13.00;93.20;;;;;;5086207;28;20377;-73
2020/12/04 14:08:46;;;;;;;58.33;42.25;;;12.80;93.30;;;;;;5085985;28;20823;-73
2020/12/04 14:11:17;;;;;;;35.53;24.25;;;12.60;94.10;;;;;;5086215;28;20404;-73
2020/12/04 14:13:45;;;;;;;45.42;32.85;;;12.50;93.50;;;;;;5086461;28;20418;-73
2020/12/04 14:16:11;;;;;;;45.37;31.93;;;12.40;94.40;;;;;;5086494;28;20384;-75
2020/12/04 14:18:38;;;;;;;77.53;49.38;;;12.50;94.60;;;;;;5086647;28;20407;-73
2020/12/04 14:21:08;;;;;;;92.47;58.30;;;12.60;94.10;;;;;;5086436;28;20373;-73
2020/12/04 14:23:34;;;;;;;53.10;36.80;;;12.50;94.10;;;;;;5096264;28;20424;-74
2020/12/04 14:26:01;;;;;;;88.90;56.47;;;12.30;94.10;;;;;;5094493;28;20369;-74
2020/12/04 14:28:28;;;;;;;35.55;23.77;;;12.20;94.00;;;;;;5094826;28;20364;-73
2020/12/04 14:30:54;;;;;;;24.25;18.45;;;12.10;94.10;;;;;;5096231;28;20909;-74
2020/12/04 14:33:21;;;;;;;29.45;21.52;;;12.10;94.20;;;;;;5094888;28;20866;-76
2020/12/04 14:35:47;;;;;;;22.03;15.73;;;11.90;94.30;;;;;;5093369;28;21029;-75
2020/12/04 14:39:02;;;;;;;24.98;17.55;;;11.80;94.40;;;;;;5095394;28;20376;-76
2020/12/04 14:40:58;;;;;;;23.55;17.77;;;11.70;94.80;;;;;;5097841;28;20439;-76
2020/12/04 14:43:24;;;;;;;23.90;17.20;;;11.70;94.60;;;;;;5105148;28;20490;-75
2020/12/04 14:45:50;;;;;;;25.43;18.37;;;11.60;94.70;;;;;;5087211;28;20545;-76
2020/12/04 14:48:15;;;;;;;28.67;20.33;;;11.50;95.10;;;;;;5081158;28;20397;-75
2020/12/04 14:50:41;;;;;;;31.45;21.45;;;11.40;95.50;;;;;;5080357;28;21177;-75
2020/12/04 15:11:30;;;;;;;36.55;25.77;;;11.10;96.80;;;;;;5088869;27;20342;-83
2020/12/04 15:13:55;;;;;;;38.75;27.45;;;10.80;97.20;;;;;;5068858;28;20837;-82